Sarbogard, Hungary
Current Conditions -  °F | °C
As of 12:30 AM on Tuesday 25 Nov 2014 (Local Time) from LHBP Reporting Station
Light Rain Light Rain  
Wind Chill: 35°   Ceiling: 3500
Heat Index: 39°   Visibility: 5mi
Dew Point: 36°   Wind: 6mph
Humidity: 87%   Direction: 70°ENE
Pressure: 30.39"   Gusts: NA
Location:  46.89°N, 18.63°E
Report Text: LHBP 242230Z 07005KT 8000 -RA BKN035 04/02 Q1029 TEMPO 5000 RA BR
Loading
Personal Weather Stations






























Interactive Weather Map New forecast layout! Learn more

10-Day Weather Forecast

Advertisements
Track Severe Weather on mobile